createdAt,value
2019-03-18T00:00:00.638Z,56.70
2019-03-18T00:04:05.565Z,54.50
2019-03-18T00:08:10.604Z,53.00
2019-03-18T00:12:15.507Z,52.40
2019-03-18T00:16:22.540Z,51.80
2019-03-18T00:20:27.434Z,52.60
2019-03-18T00:24:32.322Z,51.30
2019-03-18T00:28:45.198Z,51.30
2019-03-18T00:32:50.097Z,50.90
2019-03-18T00:36:57.254Z,51.80
2019-03-18T00:41:02.129Z,54.50
2019-03-18T00:45:15.145Z,54.30
2019-03-18T00:49:19.702Z,54.80
2019-03-18T00:53:24.619Z,51.50
2019-03-18T00:57:47.961Z,50.60
2019-03-18T01:01:52.857Z,48.50
2019-03-18T01:05:57.781Z,45.60
2019-03-18T01:10:02.645Z,44.60
2019-03-18T01:14:07.574Z,45.60
2019-03-18T01:18:12.576Z,43.90
2019-03-18T01:22:17.827Z,44.20
2019-03-18T01:26:22.723Z,44.10
2019-03-18T01:30:29.907Z,43.80
2019-03-18T01:34:34.865Z,45.30
2019-03-18T01:38:39.786Z,45.60
2019-03-18T01:42:44.747Z,45.00
2019-03-18T01:46:49.656Z,45.70
2019-03-18T01:50:54.550Z,45.30
2019-03-18T01:54:59.779Z,45.00
2019-03-18T01:59:04.654Z,46.10
2019-03-18T02:03:21.750Z,45.30
2019-03-18T02:07:26.616Z,45.90
2019-03-18T02:11:31.493Z,45.90
2019-03-18T02:15:38.446Z,49.20
2019-03-18T02:19:43.332Z,52.60
2019-03-18T02:23:54.124Z,59.50
2019-03-18T02:27:59.267Z,60.00
2019-03-18T02:32:06.258Z,62.10
2019-03-18T02:36:19.215Z,64.70
2019-03-18T02:40:24.171Z,63.00
2019-03-18T02:44:40.307Z,65.10
2019-03-18T02:48:45.214Z,65.20
2019-03-18T02:52:51.214Z,63.50
2019-03-18T02:56:58.318Z,63.70
2019-03-18T03:01:03.304Z,63.80
2019-03-18T03:05:09.810Z,64.80
2019-03-18T03:09:14.727Z,68.00
2019-03-18T03:13:19.708Z,69.90
2019-03-18T03:17:26.782Z,75.40
2019-03-18T03:21:32.866Z,76.90
2019-03-18T03:25:38.820Z,71.40
2019-03-18T03:29:43.713Z,77.80
2019-03-18T03:33:48.808Z,74.70
2019-03-18T03:37:53.684Z,72.70
2019-03-18T03:41:58.718Z,81.90
2019-03-18T03:46:08.062Z,84.30
2019-03-18T03:50:13.194Z,84.60
2019-03-18T03:54:18.205Z,83.50
2019-03-18T03:58:23.219Z,78.30
2019-03-18T04:02:28.253Z,77.70
2019-03-18T04:06:33.491Z,74.50
2019-03-18T04:10:38.416Z,70.90
2019-03-18T04:14:43.482Z,69.70
2019-03-18T04:18:48.364Z,72.40
2019-03-18T04:22:56.635Z,72.60
2019-03-18T04:27:01.573Z,72.90
2019-03-18T04:31:13.478Z,75.90
2019-03-18T04:35:18.530Z,73.00
2019-03-18T04:39:27.713Z,75.90
2019-03-18T04:43:32.573Z,71.70
2019-03-18T04:47:44.609Z,76.50
2019-03-18T04:51:49.510Z,72.60
2019-03-18T04:55:54.570Z,71.40
2019-03-18T04:59:59.465Z,74.40
2019-03-18T05:04:04.613Z,74.90
2019-03-18T05:08:09.479Z,75.00
2019-03-18T05:12:14.382Z,77.10
2019-03-18T05:16:19.354Z,75.10
2019-03-18T05:20:24.208Z,73.30
2019-03-18T05:24:29.317Z,75.00
2019-03-18T05:28:34.216Z,77.30
2019-03-18T05:32:39.231Z,77.30
2019-03-18T05:36:44.130Z,72.70
2019-03-18T05:40:50.412Z,75.30
2019-03-18T05:44:55.297Z,74.90
2019-03-18T05:49:00.250Z,72.30
2019-03-18T05:53:05.176Z,67.60
2019-03-18T05:57:10.075Z,66.40
2019-03-18T06:01:15.059Z,65.30
2019-03-18T06:05:19.953Z,67.50
2019-03-18T06:09:24.850Z,61.80
2019-03-18T06:13:29.711Z,63.10
2019-03-18T06:17:35.049Z,62.90
2019-03-18T06:21:40.563Z,60.50
2019-03-18T06:25:53.840Z,60.50
2019-03-18T06:29:58.890Z,59.00
2019-03-18T06:34:03.871Z,60.00
2019-03-18T06:38:08.841Z,61.30
2019-03-18T06:42:13.823Z,60.90
2019-03-18T06:46:19.365Z,60.00
2019-03-18T06:50:24.504Z,59.20
2019-03-18T06:54:29.541Z,59.20
2019-03-18T06:58:34.798Z,58.60
2019-03-18T07:02:39.745Z,59.10
2019-03-18T07:06:44.754Z,59.20
2019-03-18T07:10:49.826Z,59.30
2019-03-18T07:14:54.789Z,59.40
2019-03-18T07:18:59.719Z,62.70
2019-03-18T07:23:04.628Z,62.50
2019-03-18T07:27:09.679Z,59.20
2019-03-18T07:31:14.617Z,59.90
2019-03-18T07:35:19.792Z,60.30
2019-03-18T07:39:24.749Z,59.10
2019-03-18T07:43:29.692Z,59.80
2019-03-18T07:47:34.738Z,63.00
2019-03-18T07:51:39.637Z,60.40
2019-03-18T07:55:44.667Z,59.50
2019-03-18T07:59:49.888Z,59.20
2019-03-18T08:03:54.917Z,59.30
2019-03-18T08:08:00.012Z,61.90
2019-03-18T08:12:05.098Z,61.60
2019-03-18T08:16:10.129Z,62.10
2019-03-18T08:20:15.350Z,60.20
2019-03-18T08:24:21.519Z,58.50
2019-03-18T08:28:27.635Z,57.50
2019-03-18T08:32:32.519Z,58.50
2019-03-18T08:36:37.647Z,54.60
2019-03-18T08:40:43.195Z,55.80
2019-03-18T08:44:49.889Z,54.60
2019-03-18T08:48:56.021Z,56.00
2019-03-18T08:53:02.959Z,56.10
2019-03-18T08:57:08.532Z,55.20
2019-03-18T09:01:14.579Z,51.70
2019-03-18T09:05:19.893Z,53.20
2019-03-18T09:09:25.416Z,53.20
2019-03-18T09:13:32.131Z,51.20
2019-03-18T09:17:38.889Z,53.80
2019-03-18T09:21:45.066Z,50.80
2019-03-18T09:25:50.541Z,51.80
2019-03-18T09:29:55.616Z,50.80
2019-03-18T09:34:00.694Z,53.00
2019-03-18T09:38:05.637Z,50.30
2019-03-18T09:42:11.036Z,54.60
2019-03-18T09:46:16.375Z,53.30
2019-03-18T09:50:21.825Z,52.20
2019-03-18T09:54:27.109Z,50.40
2019-03-18T09:58:32.375Z,51.20
2019-03-18T10:02:37.676Z,53.20
2019-03-18T10:06:43.403Z,51.70
2019-03-18T10:10:48.979Z,53.20
2019-03-18T10:14:54.334Z,52.80
2019-03-18T10:18:59.542Z,55.30
2019-03-18T10:23:05.059Z,57.10
2019-03-18T10:27:10.208Z,58.50
2019-03-18T10:31:15.637Z,61.00
2019-03-18T10:35:21.044Z,70.40
2019-03-18T10:39:26.332Z,74.50
2019-03-18T10:43:31.490Z,76.00
2019-03-18T10:47:36.772Z,78.40
2019-03-18T10:51:41.962Z,82.60
2019-03-18T10:56:06.925Z,82.70
2019-03-18T11:00:07.638Z,81.90
2019-03-18T11:04:20.467Z,81.00
2019-03-18T11:08:29.039Z,80.30
2019-03-18T11:12:34.432Z,80.10
2019-03-18T11:16:39.674Z,80.80
2019-03-18T11:20:45.003Z,80.80
2019-03-18T11:24:50.289Z,78.50
2019-03-18T11:28:58.571Z,79.90
2019-03-18T11:33:06.456Z,78.40
2019-03-18T11:37:12.057Z,77.80
2019-03-18T11:41:18.630Z,77.50
2019-03-18T11:45:24.148Z,76.30
2019-03-18T11:49:39.149Z,77.30
2019-03-18T11:53:36.654Z,76.10
2019-03-18T11:57:41.911Z,72.90
2019-03-18T12:01:47.210Z,73.70
2019-03-18T12:05:53.696Z,71.00
2019-03-18T12:09:59.110Z,73.10
2019-03-18T12:14:04.415Z,72.30
2019-03-18T12:18:09.673Z,70.30
2019-03-18T12:22:15.135Z,69.60
2019-03-18T12:26:21.171Z,71.10
2019-03-18T12:30:26.594Z,71.10
2019-03-18T12:34:32.851Z,67.90
2019-03-18T12:38:41.918Z,69.00
2019-03-18T12:42:47.202Z,67.30
2019-03-18T12:46:52.782Z,65.70
2019-03-18T12:51:00.874Z,66.70
2019-03-18T12:55:06.840Z,66.90
2019-03-18T12:59:12.202Z,66.10
2019-03-18T13:03:18.066Z,65.80
2019-03-18T13:07:23.431Z,66.30
2019-03-18T13:11:28.711Z,63.70
2019-03-18T13:15:34.093Z,62.90
2019-03-18T13:19:39.271Z,63.80
2019-03-18T13:23:44.552Z,65.00
2019-03-18T13:27:50.107Z,65.50
2019-03-18T13:31:55.683Z,66.00
2019-03-18T13:36:01.040Z,64.50
2019-03-18T13:40:06.788Z,64.20
2019-03-18T13:44:12.005Z,64.90
2019-03-18T13:48:17.451Z,63.80
2019-03-18T13:52:22.730Z,63.30
2019-03-18T13:56:30.065Z,62.70
2019-03-18T14:00:37.668Z,64.20
2019-03-18T14:04:42.977Z,67.10
2019-03-18T14:08:49.306Z,66.90
2019-03-18T14:12:55.263Z,68.50
2019-03-18T14:17:00.692Z,67.10
2019-03-18T14:21:06.088Z,67.00
2019-03-18T14:25:12.492Z,66.00
2019-03-18T14:29:17.830Z,64.30
2019-03-18T14:33:23.230Z,65.40
2019-03-18T14:37:28.909Z,64.20
2019-03-18T14:41:34.194Z,65.30
2019-03-18T14:45:39.713Z,66.30
2019-03-18T14:49:46.461Z,66.60
2019-03-18T14:53:51.872Z,67.40
2019-03-18T14:57:57.563Z,67.30
2019-03-18T15:02:04.950Z,66.90
2019-03-18T15:06:10.195Z,67.30
2019-03-18T15:10:16.927Z,67.60
2019-03-18T15:14:22.202Z,67.10
2019-03-18T15:18:32.004Z,66.90
2019-03-18T15:22:37.748Z,67.20
2019-03-18T15:26:45.706Z,67.80
2019-03-18T15:30:52.126Z,69.30
2019-03-18T15:34:57.454Z,68.70
2019-03-18T15:39:05.632Z,68.10
2019-03-18T15:43:10.662Z,67.00
2019-03-18T15:47:16.088Z,67.00
2019-03-18T15:51:21.572Z,66.80
2019-03-18T15:55:27.915Z,67.40
2019-03-18T15:59:33.261Z,66.90
2019-03-18T16:03:38.538Z,68.80
2019-03-18T16:07:44.051Z,70.00
2019-03-18T16:11:49.319Z,70.50
2019-03-18T16:15:56.134Z,69.80
2019-03-18T16:20:05.213Z,70.50
2019-03-18T16:24:13.336Z,70.50
2019-03-18T16:28:31.553Z,70.50
2019-03-18T16:32:33.734Z,71.30
2019-03-18T16:36:39.073Z,72.30
2019-03-18T16:40:44.411Z,73.20
2019-03-18T16:44:49.773Z,74.10
2019-03-18T16:48:55.113Z,74.90
2019-03-18T16:53:01.098Z,75.80
2019-03-18T16:57:09.060Z,78.50
2019-03-18T17:01:14.584Z,79.70
2019-03-18T17:05:23.177Z,79.70
2019-03-18T17:09:40.834Z,79.60
2019-03-18T17:13:45.883Z,79.50
2019-03-18T17:17:51.291Z,80.20
2019-03-18T17:21:56.663Z,82.00
2019-03-18T17:26:02.178Z,82.70
2019-03-18T17:30:09.809Z,82.50
2019-03-18T17:34:15.151Z,82.40
2019-03-18T17:38:20.383Z,83.10
2019-03-18T17:42:26.030Z,83.60
2019-03-18T17:46:31.375Z,83.90
2019-03-18T17:50:38.751Z,84.70
2019-03-18T17:54:44.844Z,84.60
2019-03-18T17:58:50.272Z,85.00
2019-03-18T18:02:55.425Z,85.10
2019-03-18T18:07:00.675Z,85.70
2019-03-18T18:11:05.874Z,86.50
2019-03-18T18:15:11.170Z,85.30
2019-03-18T18:19:16.364Z,86.00
2019-03-18T18:23:22.482Z,85.70
2019-03-18T18:27:27.613Z,85.70
2019-03-18T18:31:32.867Z,86.00
2019-03-18T18:35:38.385Z,87.10
2019-03-18T18:39:43.582Z,86.70
2019-03-18T18:43:49.031Z,87.00
2019-03-18T18:47:54.325Z,87.00
2019-03-18T18:51:59.566Z,88.10
2019-03-18T18:56:06.799Z,88.40
2019-03-18T19:00:14.499Z,88.40
2019-03-18T19:04:20.581Z,89.40
2019-03-18T19:08:26.311Z,88.40
2019-03-18T19:12:31.511Z,88.30
2019-03-18T19:16:36.899Z,89.90
2019-03-18T19:20:42.230Z,90.40
2019-03-18T19:24:52.865Z,90.50
2019-03-18T19:29:08.562Z,91.10
2019-03-18T19:33:20.892Z,91.00
2019-03-18T19:37:29.480Z,90.90
2019-03-18T19:41:40.340Z,91.60
2019-03-18T19:45:49.005Z,91.80
2019-03-18T19:50:03.454Z,91.80
2019-03-18T19:54:09.123Z,91.70
2019-03-18T19:58:14.795Z,92.60
2019-03-18T20:02:19.942Z,92.50
2019-03-18T20:06:24.958Z,92.20
2019-03-18T20:10:29.871Z,93.30
2019-03-18T20:14:35.327Z,93.20
2019-03-18T20:18:40.195Z,93.30
2019-03-18T20:22:45.946Z,93.30
2019-03-18T20:26:51.050Z,93.90
2019-03-18T20:30:56.838Z,94.20
2019-03-18T20:35:01.805Z,94.50
2019-03-18T20:39:08.988Z,94.30
2019-03-18T20:43:14.119Z,94.50
2019-03-18T20:47:19.614Z,94.40
2019-03-18T20:51:24.939Z,94.50
2019-03-18T20:55:30.223Z,95.70
2019-03-18T20:59:35.951Z,95.80
2019-03-18T21:03:41.829Z,95.80
2019-03-18T21:07:47.469Z,95.30
2019-03-18T21:11:52.850Z,95.30
2019-03-18T21:15:58.279Z,95.50
2019-03-18T21:20:03.162Z,95.50
2019-03-18T21:24:08.406Z,95.40
2019-03-18T21:28:13.310Z,95.60
2019-03-18T21:32:19.263Z,95.60
2019-03-18T21:36:37.198Z,96.40
2019-03-18T21:40:30.698Z,96.50
2019-03-18T21:44:36.669Z,96.40
2019-03-18T21:48:41.557Z,96.50
2019-03-18T21:52:46.711Z,97.10
2019-03-18T21:56:51.652Z,97.20
2019-03-18T22:00:56.618Z,97.20
2019-03-18T22:05:01.606Z,97.20
2019-03-18T22:09:08.189Z,97.20
2019-03-18T22:13:13.215Z,97.20
2019-03-18T22:17:18.103Z,97.20
2019-03-18T22:21:23.107Z,97.20
2019-03-18T22:25:28.151Z,97.20
2019-03-18T22:29:33.127Z,97.50
2019-03-18T22:33:38.214Z,97.10
2019-03-18T22:37:43.203Z,97.20
2019-03-18T22:41:48.170Z,97.50
2019-03-18T22:45:53.206Z,97.20
2019-03-18T22:49:58.104Z,97.50
2019-03-18T22:54:03.262Z,97.50
2019-03-18T22:58:08.280Z,97.90
2019-03-18T23:02:13.178Z,98.80
2019-03-18T23:06:18.089Z,99.70
2019-03-18T23:10:23.285Z,99.90
2019-03-18T23:14:28.155Z,99.90
2019-03-18T23:18:33.172Z,99.80
2019-03-18T23:22:38.099Z,99.80
2019-03-18T23:26:43.157Z,99.80
2019-03-18T23:30:48.309Z,99.90
2019-03-18T23:34:53.660Z,99.50
2019-03-18T23:38:58.587Z,99.30
2019-03-18T23:43:03.638Z,99.30
2019-03-18T23:47:08.530Z,99.20
2019-03-18T23:51:13.553Z,99.00
2019-03-18T23:55:20.003Z,99.30
2019-03-18T23:59:25.360Z,99.10
